Mapleton, UT (84664)

6:57 AM MDT on September 26, 2016 (GMT -0600)
East Mapleton Bench | | Change Station

Elev 4892 ft 40.13 °N, 111.56 °W | Updated 1 second ago

Clear
Clear
43.1 °F
Feels Like 43 °F
N
0.0
Wind Variable Wind from ESE
Gusts 0.0 mph

Today
High -- | Low -- °F
--% Chance of Precip.
Yesterday
High -- | Low -- °F
Precip. -- in
Pressure 30.37 in
Visibility 10.0 miles
Clouds Clear
Windchill 43 °F
Dew Point 37 °F
Humidity 79%
Rainfall 0.00 in
Snow Depth Not available.
7:18 AM 7:15 PM
Waning Crescent, 19% visible
METAR KPVU 261156Z VRB03KT 10SM CLR 07/04 A3043 RMK AO2 SLP282 T00670044 10100 20056 55004
Pressure 30.37 in
Visibility 10.0 miles
Clouds Clear
Windchill 43 °F
Dew Point 37 °F
Humidity 79%
Rainfall 0.00 in
Snow Depth Not available.
7:18 AM 7:15 PM
Waning Crescent, 19% visible
METAR KPVU 261156Z VRB03KT 10SM CLR 07/04 A3043 RMK AO2 SLP282 T00670044 10100 20056 55004

10-Day Weather Forecast

Almanac

Astronomy

Sep. 26, 2016 Rise Set
Actual Time
Civil Twilight
Nautical Twilight
Astronomical Twilight
Moon
Length of Visible Light
Length of Day
Tomorrow will be .
, % of the Moon is Illuminated

Today's Extremes

State Highs State Lows

Community

WunderPhotos

Upload Photos

1,941,870 photos uploaded!

WunderBlog® & News

Nearby

Air Quality

  Air Quality AQ Index Pollutant
Not available.

Snow Depth

Station Depth Elevation

Earthquake Activity

City Distance Mag. Time & Date
Minimum magnitude displayed is 2.5.

Coastal Water Temperatures

Place Temperature

Stations

Nearby Weather Stations

Station Location Temp. Windchill Dew Point Humidity Wind Precip. Elev Updated Type
                   

Watches & Warnings

There are currently no watches in effect.